Athol, Idaho
Current Conditions -  °F | °C
As of 4:35 AM on Wednesday 26 Nov 2014 (Local Time) from KCOE Reporting Station
Overcast Overcast  
Wind Chill: 28°   Ceiling: 1300
Heat Index: 34°   Visibility: 2.5mi
Dew Point: 30°   Wind: 7mph
Humidity: 87%   Direction: 30°NNE
Pressure: 30.16"   Gusts: NA
Location:  47.95°N, 116.71°W
Report Text: KCOE 261235Z AUTO 03006KT 2 1/2SM FEW008 OVC013 01/M01 A3016 RMK AO1
Loading
Personal Weather Stations






























Interactive Weather Map New forecast layout! Learn more

10-Day Weather Forecast

Advertisements
Track Severe Weather on mobile